createdAt,value
2023-05-04T00:01:52.247Z,5.21
2023-05-04T00:04:23.544Z,5.44
2023-05-04T00:06:54.837Z,5.50
2023-05-04T00:09:26.144Z,5.47
2023-05-04T00:11:57.672Z,5.47
2023-05-04T00:14:28.947Z,5.49
2023-05-04T00:17:00.338Z,5.52
2023-05-04T00:19:33.140Z,5.54
2023-05-04T00:22:04.485Z,5.55
2023-05-04T00:24:35.861Z,5.55
2023-05-04T00:27:07.292Z,5.53
2023-05-04T00:29:38.687Z,5.49
2023-05-04T00:32:10.560Z,5.48
2023-05-04T00:34:41.837Z,5.45
2023-05-04T00:37:13.217Z,5.44
2023-05-04T00:39:44.484Z,5.25
2023-05-04T00:42:15.875Z,5.42
2023-05-04T00:44:47.348Z,5.32
2023-05-04T00:47:19.768Z,5.35
2023-05-04T00:49:52.042Z,5.32
2023-05-04T00:52:24.330Z,5.29
2023-05-04T00:54:55.865Z,5.24
2023-05-04T00:57:27.418Z,5.25
2023-05-04T00:59:58.788Z,5.23
2023-05-04T01:02:30.110Z,5.23
2023-05-04T01:05:02.610Z,5.21
2023-05-04T01:07:56.127Z,5.21
2023-05-04T01:10:34.562Z,5.20
2023-05-04T01:13:09.942Z,5.21
2023-05-04T01:15:42.354Z,5.19
2023-05-04T01:18:14.277Z,5.09
2023-05-04T01:20:45.596Z,5.01
2023-05-04T01:23:17.050Z,5.12
2023-05-04T01:26:14.524Z,5.12
2023-05-04T01:29:00.619Z,5.07
2023-05-04T01:31:35.679Z,4.96
2023-05-04T01:34:08.787Z,5.10
2023-05-04T01:36:41.568Z,5.12
2023-05-04T01:39:12.950Z,5.13
2023-05-04T01:41:44.255Z,5.07
2023-05-04T01:44:16.375Z,5.18
2023-05-04T01:46:47.708Z,5.20
2023-05-04T01:49:19.032Z,5.10
2023-05-04T01:51:50.410Z,5.25
2023-05-04T01:54:21.684Z,5.16
2023-05-04T01:56:53.069Z,5.26
2023-05-04T01:59:24.340Z,5.26
2023-05-04T02:01:55.888Z,5.25
2023-05-04T02:04:27.279Z,5.28
2023-05-04T02:06:58.554Z,5.26
2023-05-04T02:09:29.830Z,5.14
2023-05-04T02:12:01.120Z,5.11
2023-05-04T02:14:32.438Z,5.22
2023-05-04T02:17:03.707Z,5.09
2023-05-04T02:19:34.985Z,5.06
2023-05-04T02:22:06.287Z,5.16
2023-05-04T02:24:37.659Z,5.11
2023-05-04T02:27:08.966Z,5.10
2023-05-04T02:29:40.264Z,5.07
2023-05-04T02:32:11.550Z,4.80
2023-05-04T02:34:42.899Z,5.01
2023-05-04T02:37:14.314Z,4.99
2023-05-04T02:39:45.626Z,4.97
2023-05-04T02:42:17.156Z,4.95
2023-05-04T02:44:48.498Z,4.93
2023-05-04T02:47:19.800Z,4.89
2023-05-04T02:49:51.145Z,4.84
2023-05-04T02:52:22.437Z,4.82
2023-05-04T02:54:53.694Z,4.85
2023-05-04T02:57:25.092Z,4.81
2023-05-04T02:59:56.775Z,4.69
2023-05-04T03:02:28.147Z,4.67
2023-05-04T03:04:59.545Z,4.76
2023-05-04T03:07:31.393Z,4.59
2023-05-04T03:10:03.004Z,4.74
2023-05-04T03:12:34.581Z,4.73
2023-05-04T03:15:06.626Z,4.73
2023-05-04T03:17:38.291Z,4.75
2023-05-04T03:20:10.203Z,4.69
2023-05-04T03:22:41.496Z,4.78
2023-05-04T03:25:12.761Z,4.78
2023-05-04T03:27:44.086Z,4.71
2023-05-04T03:30:15.436Z,4.65
2023-05-04T03:32:48.661Z,4.77
2023-05-04T03:35:24.592Z,4.79
2023-05-04T03:37:56.368Z,4.86
2023-05-04T03:40:27.778Z,4.85
2023-05-04T03:42:59.050Z,4.89
2023-05-04T03:45:30.476Z,4.84
2023-05-04T03:48:02.194Z,4.96
2023-05-04T03:50:33.529Z,5.00
2023-05-04T03:53:05.616Z,5.02
2023-05-04T03:55:37.011Z,5.06
2023-05-04T03:58:08.385Z,5.10
2023-05-04T04:00:39.889Z,5.06
2023-05-04T04:03:11.399Z,5.16
2023-05-04T04:05:42.902Z,5.26
2023-05-04T04:08:14.446Z,5.33
2023-05-04T04:10:45.766Z,5.42
2023-05-04T04:13:17.083Z,5.47
2023-05-04T04:15:48.447Z,5.59
2023-05-04T04:18:20.337Z,5.66
2023-05-04T04:20:51.695Z,5.69
2023-05-04T04:23:24.011Z,5.83
2023-05-04T04:25:55.265Z,5.92
2023-05-04T04:28:26.648Z,5.97
2023-05-04T04:30:57.967Z,5.99
2023-05-04T04:33:29.412Z,6.15
2023-05-04T04:36:00.883Z,6.15
2023-05-04T04:38:32.173Z,6.40
2023-05-04T04:41:03.559Z,6.44
2023-05-04T04:43:35.304Z,6.66
2023-05-04T04:46:06.921Z,6.81
2023-05-04T04:48:38.178Z,6.74
2023-05-04T04:51:11.164Z,6.91
2023-05-04T04:53:42.423Z,7.17
2023-05-04T04:56:13.824Z,7.24
2023-05-04T04:58:46.041Z,7.29
2023-05-04T05:01:18.821Z,7.45
2023-05-04T05:03:50.242Z,7.52
2023-05-04T05:06:22.087Z,7.58
2023-05-04T05:08:53.338Z,7.61
2023-05-04T05:11:24.617Z,7.63
2023-05-04T05:13:56.064Z,7.70
2023-05-04T05:16:27.360Z,7.76
2023-05-04T05:18:58.706Z,7.71
2023-05-04T05:21:30.308Z,7.91
2023-05-04T05:24:01.780Z,7.97
2023-05-04T05:26:33.308Z,8.03
2023-05-04T05:29:04.601Z,8.08
2023-05-04T05:31:35.999Z,8.14
2023-05-04T05:34:07.272Z,8.18
2023-05-04T05:36:38.961Z,8.25
2023-05-04T05:39:11.403Z,8.32
2023-05-04T05:41:43.249Z,8.38
2023-05-04T05:44:14.539Z,8.52
2023-05-04T05:46:45.899Z,8.62
2023-05-04T05:49:17.259Z,8.72
2023-05-04T05:51:48.525Z,8.81
2023-05-04T05:54:22.796Z,8.74
2023-05-04T05:56:54.065Z,8.97
2023-05-04T05:59:25.358Z,9.08
2023-05-04T06:01:56.614Z,9.18
2023-05-04T06:04:28.092Z,9.66
2023-05-04T06:06:59.364Z,10.61
2023-05-04T06:09:30.622Z,11.36
2023-05-04T06:12:03.187Z,12.48
2023-05-04T06:14:34.459Z,13.03
2023-05-04T06:17:06.042Z,13.48
2023-05-04T06:19:38.136Z,13.90
2023-05-04T06:22:09.465Z,14.04
2023-05-04T06:24:41.156Z,13.90
2023-05-04T06:27:12.629Z,13.69
2023-05-04T06:29:43.955Z,13.46
2023-05-04T06:32:15.333Z,13.30
2023-05-04T06:34:46.604Z,12.91
2023-05-04T06:37:18.556Z,12.72
2023-05-04T06:39:49.837Z,12.56
2023-05-04T06:42:21.266Z,12.57
2023-05-04T06:44:52.558Z,12.62
2023-05-04T06:47:23.885Z,12.68
2023-05-04T06:49:55.190Z,12.62
2023-05-04T06:52:29.518Z,12.48
2023-05-04T06:55:01.676Z,12.55
2023-05-04T06:57:33.325Z,12.46
2023-05-04T07:00:06.252Z,12.37
2023-05-04T07:02:37.745Z,12.47
2023-05-04T07:05:09.147Z,12.60
2023-05-04T07:07:40.728Z,12.67
2023-05-04T07:10:11.998Z,12.81
2023-05-04T07:12:43.731Z,12.79
2023-05-04T07:15:15.166Z,12.80
2023-05-04T07:17:47.334Z,13.04
2023-05-04T07:20:21.296Z,13.11
2023-05-04T07:22:57.062Z,13.26
2023-05-04T07:25:28.600Z,13.40
2023-05-04T07:27:59.879Z,13.54
2023-05-04T07:30:31.264Z,13.68
2023-05-04T07:33:02.794Z,13.84
2023-05-04T07:35:34.117Z,13.88
2023-05-04T07:38:05.420Z,13.96
2023-05-04T07:40:36.786Z,14.02
2023-05-04T07:43:08.086Z,14.07
2023-05-04T07:45:39.365Z,14.15
2023-05-04T07:48:10.778Z,14.25
2023-05-04T07:50:42.081Z,14.36
2023-05-04T07:53:13.746Z,14.47
2023-05-04T07:55:45.017Z,14.51
2023-05-04T07:58:16.699Z,14.80
2023-05-04T08:00:48.139Z,15.07
2023-05-04T08:03:19.461Z,15.41
2023-05-04T08:05:51.145Z,15.68
2023-05-04T08:08:22.512Z,15.93
2023-05-04T08:10:55.004Z,15.90
2023-05-04T08:13:27.534Z,15.79
2023-05-04T08:16:01.364Z,15.84
2023-05-04T08:18:32.701Z,15.97
2023-05-04T08:21:04.425Z,16.22
2023-05-04T08:23:36.234Z,16.27
2023-05-04T08:26:07.538Z,16.33
2023-05-04T08:28:39.777Z,16.38
2023-05-04T08:31:11.135Z,16.42
2023-05-04T08:33:42.484Z,16.32
2023-05-04T08:36:13.804Z,16.33
2023-05-04T08:38:45.075Z,16.26
2023-05-04T08:41:16.601Z,16.20
2023-05-04T08:43:49.267Z,16.52
2023-05-04T08:46:20.764Z,16.54
2023-05-04T08:48:52.315Z,16.77
2023-05-04T08:51:23.891Z,17.17
2023-05-04T08:53:56.218Z,17.23
2023-05-04T08:56:27.570Z,17.40
2023-05-04T08:59:01.825Z,17.39
2023-05-04T09:01:33.542Z,17.62
2023-05-04T09:04:05.458Z,17.89
2023-05-04T09:06:36.913Z,17.93
2023-05-04T09:09:10.031Z,17.88
2023-05-04T09:11:41.486Z,17.87
2023-05-04T09:14:12.764Z,18.07
2023-05-04T09:16:44.140Z,18.23
2023-05-04T09:19:20.761Z,18.32
2023-05-04T09:21:54.299Z,18.26
2023-05-04T09:24:27.461Z,18.33
2023-05-04T09:27:10.235Z,18.19
2023-05-04T09:29:42.348Z,17.86
2023-05-04T09:32:16.602Z,17.80
2023-05-04T09:34:52.515Z,17.62
2023-05-04T09:37:23.875Z,17.59
2023-05-04T09:39:57.356Z,17.61
2023-05-04T09:42:28.681Z,17.51
2023-05-04T09:45:05.997Z,17.62
2023-05-04T09:47:41.500Z,17.95
2023-05-04T09:50:20.103Z,18.22
2023-05-04T09:52:53.314Z,18.34
2023-05-04T09:55:25.570Z,18.53
2023-05-04T09:57:57.407Z,18.73
2023-05-04T10:00:28.709Z,18.95
2023-05-04T10:03:03.367Z,19.19
2023-05-04T10:05:35.284Z,19.18
2023-05-04T10:08:07.973Z,19.16
2023-05-04T10:10:39.787Z,19.22
2023-05-04T10:13:11.202Z,19.24
2023-05-04T10:16:11.537Z,19.47
2023-05-04T10:19:13.676Z,19.71
2023-05-04T10:22:09.840Z,19.86
2023-05-04T10:25:19.625Z,19.84
2023-05-04T10:28:28.595Z,19.98
2023-05-04T10:31:00.162Z,19.99
2023-05-04T10:33:39.564Z,20.10
2023-05-04T10:36:11.810Z,20.07
2023-05-04T10:38:43.324Z,19.92
2023-05-04T10:41:15.520Z,19.81
2023-05-04T10:43:50.672Z,19.75
2023-05-04T10:46:23.491Z,19.54
2023-05-04T10:48:54.850Z,19.42
2023-05-04T10:51:35.751Z,19.27
2023-05-04T10:54:18.747Z,19.06
2023-05-04T10:57:01.998Z,18.86
2023-05-04T10:59:35.380Z,18.80
2023-05-04T11:02:08.305Z,18.83
2023-05-04T11:04:39.748Z,18.97
2023-05-04T11:07:11.060Z,19.27
2023-05-04T11:09:44.278Z,19.45
2023-05-04T11:12:16.427Z,19.58
2023-05-04T11:14:47.703Z,19.67
2023-05-04T11:17:28.327Z,19.71
2023-05-04T11:20:01.037Z,19.71
2023-05-04T11:22:32.890Z,19.68
2023-05-04T11:25:05.038Z,19.92
2023-05-04T11:27:36.488Z,20.10
2023-05-04T11:30:08.495Z,20.10
2023-05-04T11:32:43.526Z,20.16
2023-05-04T11:35:22.713Z,20.24
2023-05-04T11:37:55.357Z,20.36
2023-05-04T11:40:27.489Z,20.50
2023-05-04T11:42:59.591Z,20.58
2023-05-04T11:45:33.124Z,20.46
2023-05-04T11:48:05.165Z,20.25
2023-05-04T11:50:36.756Z,20.20
2023-05-04T11:53:13.428Z,20.13
2023-05-04T11:55:44.704Z,20.00
2023-05-04T11:58:24.111Z,19.90
2023-05-04T12:00:57.649Z,19.92
2023-05-04T12:03:52.259Z,20.00
2023-05-04T12:06:32.621Z,20.15
2023-05-04T12:09:05.977Z,20.20
2023-05-04T12:11:38.320Z,20.30
2023-05-04T12:14:11.650Z,20.46
2023-05-04T12:16:54.017Z,20.84
2023-05-04T12:19:25.964Z,21.06
2023-05-04T12:21:58.753Z,20.94
2023-05-04T12:24:30.275Z,20.95
2023-05-04T12:27:01.982Z,20.86
2023-05-04T12:29:33.281Z,20.85
2023-05-04T12:32:04.745Z,20.78
2023-05-04T12:34:37.072Z,20.81
2023-05-04T12:37:08.373Z,20.92
2023-05-04T12:39:39.738Z,21.07
2023-05-04T12:42:11.163Z,21.12
2023-05-04T12:44:42.489Z,20.96
2023-05-04T12:47:15.115Z,20.78
2023-05-04T12:49:46.404Z,20.88
2023-05-04T12:52:17.690Z,21.15
2023-05-04T12:54:49.730Z,21.35
2023-05-04T12:57:21.009Z,21.46
2023-05-04T12:59:52.299Z,21.72
2023-05-04T13:02:24.228Z,21.85
2023-05-04T13:04:55.549Z,22.03
2023-05-04T13:07:27.271Z,22.04
2023-05-04T13:09:59.097Z,22.13
2023-05-04T13:12:30.449Z,22.27
2023-05-04T13:15:01.837Z,22.22
2023-05-04T13:17:34.575Z,22.22
2023-05-04T13:20:07.045Z,22.32
2023-05-04T13:22:39.522Z,22.45
2023-05-04T13:25:10.950Z,22.33
2023-05-04T13:27:42.291Z,22.36
2023-05-04T13:30:13.721Z,22.33
2023-05-04T13:32:45.496Z,22.08
2023-05-04T13:35:17.045Z,21.65
2023-05-04T13:37:48.353Z,21.19
2023-05-04T13:40:19.890Z,21.10
2023-05-04T13:42:51.556Z,20.99
2023-05-04T13:45:23.492Z,20.88
2023-05-04T13:47:54.826Z,20.90
2023-05-04T13:50:26.254Z,20.87
2023-05-04T13:52:57.597Z,20.84
2023-05-04T13:55:28.872Z,20.94
2023-05-04T13:58:00.600Z,20.97
2023-05-04T14:00:32.223Z,20.98
2023-05-04T14:03:04.149Z,20.86
2023-05-04T14:05:35.742Z,20.87
2023-05-04T14:08:07.056Z,20.87
2023-05-04T14:10:38.432Z,20.67
2023-05-04T14:13:09.813Z,20.49
2023-05-04T14:15:41.195Z,20.53
2023-05-04T14:18:12.556Z,20.69
2023-05-04T14:20:43.988Z,20.68
2023-05-04T14:23:15.964Z,20.89
2023-05-04T14:25:51.640Z,21.29
2023-05-04T14:28:23.902Z,21.71
2023-05-04T14:30:55.296Z,21.75
2023-05-04T14:33:26.687Z,21.67
2023-05-04T14:35:57.967Z,21.58
2023-05-04T14:38:29.815Z,21.74
2023-05-04T14:41:04.843Z,21.85
2023-05-04T14:43:36.300Z,21.69
2023-05-04T14:46:09.289Z,21.41
2023-05-04T14:48:40.632Z,21.26
2023-05-04T14:51:13.223Z,21.13
2023-05-04T14:53:46.766Z,21.01
2023-05-04T14:56:18.393Z,21.02
2023-05-04T14:58:49.771Z,21.08
2023-05-04T15:01:21.073Z,21.08
2023-05-04T15:03:52.629Z,21.02
2023-05-04T15:06:24.028Z,20.82
2023-05-04T15:08:55.302Z,20.78
2023-05-04T15:11:26.586Z,20.74
2023-05-04T15:13:58.953Z,20.70
2023-05-04T15:16:32.696Z,20.60
2023-05-04T15:19:04.247Z,20.53
2023-05-04T15:21:35.618Z,20.33
2023-05-04T15:24:07.238Z,20.38
2023-05-04T15:26:38.823Z,20.42
2023-05-04T15:29:10.177Z,20.38
2023-05-04T15:31:41.529Z,20.31
2023-05-04T15:34:12.828Z,20.17
2023-05-04T15:36:44.207Z,19.96
2023-05-04T15:39:15.508Z,19.71
2023-05-04T15:41:46.869Z,19.56
2023-05-04T15:44:20.852Z,19.39
2023-05-04T15:46:52.235Z,19.43
2023-05-04T15:49:23.680Z,19.37
2023-05-04T15:51:55.049Z,19.30
2023-05-04T15:54:26.393Z,19.08
2023-05-04T15:56:57.839Z,19.02
2023-05-04T15:59:29.185Z,18.95
2023-05-04T16:02:00.629Z,18.90
2023-05-04T16:04:32.129Z,18.84
2023-05-04T16:07:03.448Z,18.87
2023-05-04T16:09:34.804Z,18.89
2023-05-04T16:12:07.838Z,18.89
2023-05-04T16:14:39.122Z,18.97
2023-05-04T16:17:10.582Z,18.93
2023-05-04T16:19:42.273Z,19.08
2023-05-04T16:22:13.588Z,19.10
2023-05-04T16:24:44.968Z,19.11
2023-05-04T16:27:16.316Z,19.09
2023-05-04T16:29:47.637Z,19.08
2023-05-04T16:32:19.344Z,18.98
2023-05-04T16:34:50.715Z,18.79
2023-05-04T16:37:22.140Z,18.79
2023-05-04T16:39:54.240Z,18.73
2023-05-04T16:42:25.536Z,18.64
2023-05-04T16:44:56.836Z,18.61
2023-05-04T16:47:28.230Z,18.58
2023-05-04T16:49:59.610Z,18.56
2023-05-04T16:52:31.090Z,18.58
2023-05-04T16:55:02.412Z,18.51
2023-05-04T16:57:33.689Z,18.21
2023-05-04T17:00:06.703Z,18.20
2023-05-04T17:02:38.476Z,18.21
2023-05-04T17:05:10.450Z,18.19
2023-05-04T17:07:43.422Z,18.12
2023-05-04T17:10:14.998Z,18.07
2023-05-04T17:12:46.642Z,18.02
2023-05-04T17:15:18.057Z,17.99
2023-05-04T17:17:49.465Z,17.91
2023-05-04T17:20:21.675Z,17.86
2023-05-04T17:22:54.356Z,17.92
2023-05-04T17:25:26.755Z,17.90
2023-05-04T17:27:58.101Z,17.81
2023-05-04T17:30:29.447Z,17.77
2023-05-04T17:33:01.351Z,17.69
2023-05-04T17:35:32.683Z,17.67
2023-05-04T17:38:04.102Z,17.61
2023-05-04T17:40:35.414Z,17.54
2023-05-04T17:43:06.804Z,17.48
2023-05-04T17:45:38.154Z,17.41
2023-05-04T17:48:09.501Z,17.35
2023-05-04T17:50:40.908Z,17.29
2023-05-04T17:53:12.243Z,17.22
2023-05-04T17:55:43.526Z,17.14
2023-05-04T17:58:14.935Z,17.03
2023-05-04T18:00:46.190Z,16.90
2023-05-04T18:03:17.851Z,16.55
2023-05-04T18:05:49.198Z,16.30
2023-05-04T18:08:20.524Z,16.01
2023-05-04T18:10:52.200Z,15.77
2023-05-04T18:13:23.526Z,15.59
2023-05-04T18:15:55.038Z,15.27
2023-05-04T18:18:26.663Z,15.32
2023-05-04T18:20:58.689Z,15.18
2023-05-04T18:23:30.110Z,15.08
2023-05-04T18:26:01.659Z,15.01
2023-05-04T18:28:33.217Z,14.91
2023-05-04T18:31:05.588Z,14.81
2023-05-04T18:33:39.958Z,14.67
2023-05-04T18:36:11.946Z,14.64
2023-05-04T18:38:49.544Z,14.54
2023-05-04T18:41:21.852Z,14.34
2023-05-04T18:43:55.710Z,14.32
2023-05-04T18:46:27.649Z,14.21
2023-05-04T18:48:59.077Z,14.11
2023-05-04T18:51:31.013Z,13.86
2023-05-04T18:54:02.371Z,13.91
2023-05-04T18:56:33.755Z,13.85
2023-05-04T18:59:05.965Z,13.77
2023-05-04T19:01:38.631Z,13.68
2023-05-04T19:04:10.411Z,13.64
2023-05-04T19:06:42.006Z,13.49
2023-05-04T19:09:14.416Z,13.50
2023-05-04T19:11:48.815Z,13.44
2023-05-04T19:14:20.197Z,13.28
2023-05-04T19:16:51.551Z,13.30
2023-05-04T19:19:23.414Z,13.23
2023-05-04T19:21:55.349Z,13.11
2023-05-04T19:24:26.739Z,13.07
2023-05-04T19:27:00.191Z,13.02
2023-05-04T19:29:31.852Z,12.90
2023-05-04T19:32:12.024Z,12.88
2023-05-04T19:34:51.995Z,12.79
2023-05-04T19:37:23.324Z,12.71
2023-05-04T19:39:54.803Z,12.52
2023-05-04T19:42:26.420Z,12.56
2023-05-04T19:44:57.748Z,12.48
2023-05-04T19:47:29.222Z,12.33
2023-05-04T19:50:00.618Z,12.36
2023-05-04T19:52:34.627Z,12.26
2023-05-04T19:55:06.863Z,12.21
2023-05-04T19:57:38.602Z,11.98
2023-05-04T20:00:10.643Z,11.95
2023-05-04T20:02:42.268Z,11.89
2023-05-04T20:05:14.129Z,11.93
2023-05-04T20:07:45.674Z,11.72
2023-05-04T20:10:17.300Z,11.82
2023-05-04T20:12:48.768Z,11.77
2023-05-04T20:15:20.167Z,11.60
2023-05-04T20:17:51.585Z,11.62
2023-05-04T20:20:22.940Z,11.58
2023-05-04T20:22:55.980Z,11.53
2023-05-04T20:25:27.624Z,11.48
2023-05-04T20:27:59.037Z,11.45
2023-05-04T20:30:30.336Z,11.41
2023-05-04T20:33:01.756Z,11.37
2023-05-04T20:35:33.132Z,11.33
2023-05-04T20:38:04.625Z,11.30
2023-05-04T20:40:35.957Z,11.28
2023-05-04T20:43:07.307Z,11.25
2023-05-04T20:45:38.572Z,11.22
2023-05-04T20:48:09.924Z,11.19
2023-05-04T20:50:42.232Z,10.87
2023-05-04T20:53:13.618Z,11.10
2023-05-04T20:55:44.918Z,11.10
2023-05-04T20:58:19.392Z,11.07
2023-05-04T21:00:52.070Z,11.06
2023-05-04T21:03:23.399Z,11.03
2023-05-04T21:05:55.969Z,10.90
2023-05-04T21:08:27.316Z,10.97
2023-05-04T21:10:58.904Z,10.93
2023-05-04T21:13:30.753Z,10.89
2023-05-04T21:16:02.043Z,10.88
2023-05-04T21:18:34.475Z,10.85
2023-05-04T21:21:05.896Z,10.84
2023-05-04T21:23:37.250Z,10.83
2023-05-04T21:26:08.599Z,10.82
2023-05-04T21:28:39.913Z,10.77
2023-05-04T21:31:11.256Z,10.80
2023-05-04T21:33:42.553Z,10.68
2023-05-04T21:36:14.676Z,10.80
2023-05-04T21:38:45.999Z,10.78
2023-05-04T21:41:17.300Z,10.77
2023-05-04T21:43:48.579Z,10.76
2023-05-04T21:46:19.952Z,10.77
2023-05-04T21:48:51.799Z,10.78
2023-05-04T21:51:23.253Z,10.77
2023-05-04T21:53:54.612Z,10.77
2023-05-04T21:56:25.911Z,10.75
2023-05-04T21:58:57.192Z,10.62
2023-05-04T22:01:28.966Z,10.77
2023-05-04T22:04:00.360Z,10.76
2023-05-04T22:06:31.812Z,10.78
2023-05-04T22:09:04.061Z,10.78
2023-05-04T22:11:35.686Z,10.71
2023-05-04T22:14:07.048Z,10.76
2023-05-04T22:16:38.411Z,10.78
2023-05-04T22:19:10.179Z,10.78
2023-05-04T22:21:41.474Z,10.47
2023-05-04T22:24:12.739Z,10.76
2023-05-04T22:26:44.498Z,10.75
2023-05-04T22:29:15.842Z,10.71
2023-05-04T22:31:47.135Z,10.73
2023-05-04T22:34:18.435Z,10.69
2023-05-04T22:36:50.003Z,10.61
2023-05-04T22:39:21.978Z,10.69
2023-05-04T22:41:53.493Z,10.68
2023-05-04T22:44:24.768Z,10.65
2023-05-04T22:46:56.105Z,10.60
2023-05-04T22:49:27.455Z,10.58
2023-05-04T22:51:58.720Z,10.56
2023-05-04T22:54:30.070Z,10.56
2023-05-04T22:57:02.020Z,10.44
2023-05-04T22:59:34.191Z,10.40
2023-05-04T23:02:06.092Z,10.32
2023-05-04T23:04:37.867Z,10.43
2023-05-04T23:07:09.394Z,10.41
2023-05-04T23:09:47.013Z,10.27
2023-05-04T23:12:18.365Z,10.33
2023-05-04T23:14:52.151Z,10.16
2023-05-04T23:17:23.585Z,10.22
2023-05-04T23:19:54.870Z,10.18
2023-05-04T23:22:26.156Z,10.14
2023-05-04T23:24:57.748Z,10.09
2023-05-04T23:27:29.009Z,10.04
2023-05-04T23:30:00.326Z,10.00
2023-05-04T23:32:31.744Z,9.89
2023-05-04T23:35:03.345Z,9.96
2023-05-04T23:37:34.640Z,9.91
2023-05-04T23:40:07.198Z,9.87
2023-05-04T23:42:38.789Z,9.77
2023-05-04T23:45:11.560Z,9.87
2023-05-04T23:47:43.403Z,9.84
2023-05-04T23:50:14.872Z,9.84
2023-05-04T23:52:46.140Z,9.73
2023-05-04T23:55:17.640Z,9.82
2023-05-04T23:57:49.097Z,9.78
